Snow/Ice From: 17-12-2017 10:00 Until: 18-12-2017 06:00 warning for: Snow/Ice Level: Yellow info button

Although rather usual in this region, locally or potentially dangerous phenomena are expected. (such as local winds, summer thunderstorms, rising streams or high waves) Be aware and pay attention to the latest weather updates, especially if you carry out activities exposed to weather or close to a stream or shoreline. 


Meteo18 Weather Cam more information Meteo18 Weather Cam


Thunder radar more information blitzortung!


warning for Snow/Ice more information rain snow radar


Visit our other weather sites:

Template documentation
and downloads

And another site



Weather Underground History page Text

Daily Summary for November 17, 2017 Units:  Both    English   Metric
« Previous Day
Next Day »
Daily Weekly Monthly Yearly Custom
  High: Low: Average:
Temperature: 50.4 °F /  10.2 °C 35.6 °F /  2.0 °C 44.1 °F /  6.7 °C
Dew Point: 46.6 °F /  8.1 °C 34.9 °F /  1.6 °C 42.3 °F /  5.7 °C
Humidity: 100 % 86 % 94 %
Wind Speed: 12 mph /  19.3 km/h - 2.4 mph /  3.8 km/h
Wind Gust: 15 mph /  24.1 km/h - -
Wind:- - East
Pressure: 30.4 in /  1027.7 hPa 30.3 in /  1026.0 hPa -
Precipitation: 0 in /  0.0 mm    
Historical Graphs
 
 
Tabular Data for November 17, 2017
Time Temperature Dew Point Pressure Wind Wind Speed Wind Gust Humidity Rainfall Rate (Hourly)
00:02 36.1 °F /  2.3 °C 35.4 °F /  1.9 °C 30.3 in /  1026.3 hPa Calm     97 % 0 in /  0.0 mm
00:07 36.1 °F /  2.3 °C 35.4 °F /  1.9 °C 30.3 in /  1026.6 hPa Calm   1 mph /  1.6 km/h 97 % 0 in /  0.0 mm
00:17 36.1 °F /  2.3 °C 35.4 °F /  1.9 °C 30.3 in /  1026.6 hPa Calm   1 mph /  1.6 km/h 97 % 0 in /  0.0 mm
00:22 36.3 °F /  2.4 °C 35.6 °F /  2.0 °C 30.3 in /  1026.6 hPa Calm   1 mph /  1.6 km/h 97 % 0 in /  0.0 mm
00:27 36.3 °F /  2.4 °C 35.6 °F /  2.0 °C 30.3 in /  1026.6 hPa ENE 1 mph /  1.6 km/h 2 mph /  3.2 km/h 97 % 0 in /  0.0 mm
00:32 36.3 °F /  2.4 °C 35.6 °F /  2.0 °C 30.3 in /  1026.6 hPa Calm   2 mph /  3.2 km/h 97 % 0 in /  0.0 mm
00:42 36.5 °F /  2.5 °C 35.8 °F /  2.1 °C 30.3 in /  1026.6 hPa ENE 2 mph /  3.2 km/h 2 mph /  3.2 km/h 97 % 0 in /  0.0 mm
00:52 36.7 °F /  2.6 °C 36 °F /  2.2 °C 30.3 in /  1026.6 hPa NE 1 mph /  1.6 km/h 3 mph /  4.8 km/h 97 % 0 in /  0.0 mm
00:57 36.7 °F /  2.6 °C 36 °F /  2.2 °C 30.3 in /  1026.6 hPa Calm   3 mph /  4.8 km/h 97 % 0 in /  0.0 mm
01:02 36.7 °F /  2.6 °C 36 °F /  2.2 °C 30.3 in /  1026.6 hPa Calm   3 mph /  4.8 km/h 97 % 0 in /  0.0 mm
01:12 36.9 °F /  2.7 °C 36.3 °F /  2.4 °C 30.3 in /  1026.6 hPa Calm   2 mph /  3.2 km/h 98 % 0 in /  0.0 mm
01:22 36.9 °F /  2.7 °C 36.3 °F /  2.4 °C 30.3 in /  1026.6 hPa NE 1 mph /  1.6 km/h 3 mph /  4.8 km/h 98 % 0 in /  0.0 mm
01:27 36.9 °F /  2.7 °C 36.1 °F /  2.3 °C 30.3 in /  1026.3 hPa Calm   3 mph /  4.8 km/h 97 % 0 in /  0.0 mm
01:32 36.9 °F /  2.7 °C 36.3 °F /  2.4 °C 30.3 in /  1026.3 hPa NNE 1 mph /  1.6 km/h 3 mph /  4.8 km/h 98 % 0 in /  0.0 mm
01:37 36.9 °F /  2.7 °C 36.3 °F /  2.4 °C 30.3 in /  1026.3 hPa NE 1 mph /  1.6 km/h 3 mph /  4.8 km/h 98 % 0 in /  0.0 mm
01:42 36.9 °F /  2.7 °C 36.3 °F /  2.4 °C 30.3 in /  1026.3 hPa NNE 1 mph /  1.6 km/h 3 mph /  4.8 km/h 98 % 0 in /  0.0 mm
01:52 37 °F /  2.8 °C 36.5 °F /  2.5 °C 30.3 in /  1026.3 hPa NE 1 mph /  1.6 km/h 3 mph /  4.8 km/h 98 % 0 in /  0.0 mm
02:02 37 °F /  2.8 °C 36.5 °F /  2.5 °C 30.3 in /  1026.3 hPa Calm   3 mph /  4.8 km/h 98 % 0 in /  0.0 mm
02:12 37.2 °F /  2.9 °C 36.7 °F /  2.6 °C 30.3 in /  1026.3 hPa Calm   2 mph /  3.2 km/h 98 % 0 in /  0.0 mm
02:17 37.2 °F /  2.9 °C 36.7 °F /  2.6 °C 30.3 in /  1026.3 hPa NNE 1 mph /  1.6 km/h 2 mph /  3.2 km/h 98 % 0 in /  0.0 mm
02:22 36.3 °F /  2.4 °C 36.3 °F /  2.4 °C 30.3 in /  1026.3 hPa Calm   4 mph /  6.4 km/h 100 % 0 in /  0.0 mm
02:32 36.3 °F /  2.4 °C 36.3 °F /  2.4 °C 30.3 in /  1026.3 hPa Calm   4 mph /  6.4 km/h 100 % 0 in /  0.0 mm
08:47 35.8 °F /  2.1 °C 35.1 °F /  1.7 °C 30.3 in /  1027.3 hPa Calm     97 % 0 in /  0.0 mm
08:52 35.6 °F /  2.0 °C 34.9 °F /  1.6 °C 30.3 in /  1027.3 hPa Calm     97 % 0 in /  0.0 mm
08:57 35.6 °F /  2.0 °C 34.9 °F /  1.6 °C 30.3 in /  1027.3 hPa Calm   1 mph /  1.6 km/h 97 % 0 in /  0.0 mm
09:02 35.6 °F /  2.0 °C 34.9 °F /  1.6 °C 30.3 in /  1027.3 hPa Calm   1 mph /  1.6 km/h 97 % 0 in /  0.0 mm
09:07 35.8 °F /  2.1 °C 35.1 °F /  1.7 °C 30.3 in /  1027.3 hPa Calm   1 mph /  1.6 km/h 97 % 0 in /  0.0 mm
09:12 36 °F /  2.2 °C 35.4 °F /  1.9 °C 30.3 in /  1027.3 hPa Calm   1 mph /  1.6 km/h 98 % 0 in /  0.0 mm
09:17 36 °F /  2.2 °C 35.4 °F /  1.9 °C 30.3 in /  1027.3 hPa Calm   1 mph /  1.6 km/h 98 % 0 in /  0.0 mm
09:22 36.1 °F /  2.3 °C 35.6 °F /  2.0 °C 30.3 in /  1027.3 hPa Calm   1 mph /  1.6 km/h 98 % 0 in /  0.0 mm
09:32 36.5 °F /  2.5 °C 36 °F /  2.2 °C 30.3 in /  1027.3 hPa Calm   1 mph /  1.6 km/h 98 % 0 in /  0.0 mm
09:37 37 °F /  2.8 °C 36.5 °F /  2.5 °C 30.3 in /  1027.3 hPa Calm   1 mph /  1.6 km/h 98 % 0 in /  0.0 mm
09:42 36.9 °F /  2.7 °C 36.3 °F /  2.4 °C 30.3 in /  1027.3 hPa Calm   1 mph /  1.6 km/h 98 % 0 in /  0.0 mm
09:47 37 °F /  2.8 °C 36.5 °F /  2.5 °C 30.3 in /  1027.3 hPa Calm   1 mph /  1.6 km/h 98 % 0 in /  0.0 mm
09:52 37.2 °F /  2.9 °C 36.7 °F /  2.6 °C 30.3 in /  1027.3 hPa Calm   1 mph /  1.6 km/h 98 % 0 in /  0.0 mm
09:57 37.6 °F /  3.1 °C 37 °F /  2.8 °C 30.3 in /  1027.3 hPa Calm   1 mph /  1.6 km/h 98 % 0 in /  0.0 mm
10:02 37.6 °F /  3.1 °C 37 °F /  2.8 °C 30.3 in /  1027.3 hPa ENE 1 mph /  1.6 km/h 1 mph /  1.6 km/h 98 % 0 in /  0.0 mm
10:12 38.1 °F /  3.4 °C 37.6 °F /  3.1 °C 30.4 in /  1027.7 hPa NNE 1 mph /  1.6 km/h 2 mph /  3.2 km/h 98 % 0 in /  0.0 mm
10:17 38.1 °F /  3.4 °C 37.6 °F /  3.1 °C 30.4 in /  1027.7 hPa ENE 1 mph /  1.6 km/h 2 mph /  3.2 km/h 98 % 0 in /  0.0 mm
10:22 38.5 °F /  3.6 °C 37.9 °F /  3.3 °C 30.4 in /  1027.7 hPa NE 1 mph /  1.6 km/h 2 mph /  3.2 km/h 98 % 0 in /  0.0 mm
10:27 38.5 °F /  3.6 °C 37.9 °F /  3.3 °C 30.4 in /  1027.7 hPa Calm   2 mph /  3.2 km/h 98 % 0 in /  0.0 mm
10:32 38.5 °F /  3.6 °C 37.9 °F /  3.3 °C 30.4 in /  1027.7 hPa Calm   2 mph /  3.2 km/h 98 % 0 in /  0.0 mm
10:37 39 °F /  3.9 °C 38.5 °F /  3.6 °C 30.3 in /  1027.3 hPa NE 1 mph /  1.6 km/h 2 mph /  3.2 km/h 98 % 0 in /  0.0 mm
10:42 39.4 °F /  4.1 °C 38.8 °F /  3.8 °C 30.3 in /  1027.3 hPa Calm   2 mph /  3.2 km/h 98 % 0 in /  0.0 mm
10:47 39.9 °F /  4.4 °C 39.4 °F /  4.1 °C 30.3 in /  1027.3 hPa Calm   2 mph /  3.2 km/h 98 % 0 in /  0.0 mm
10:52 40.1 °F /  4.5 °C 39.6 °F /  4.2 °C 30.3 in /  1027.3 hPa Calm   2 mph /  3.2 km/h 98 % 0 in /  0.0 mm
10:57 40.5 °F /  4.7 °C 39.9 °F /  4.4 °C 30.3 in /  1027.3 hPa Calm   2 mph /  3.2 km/h 98 % 0 in /  0.0 mm
11:02 40.6 °F /  4.8 °C 40.1 °F /  4.5 °C 30.3 in /  1027.3 hPa NE 1 mph /  1.6 km/h 2 mph /  3.2 km/h 98 % 0 in /  0.0 mm
11:07 40.8 °F /  4.9 °C 40.3 °F /  4.6 °C 30.4 in /  1027.7 hPa Calm   3 mph /  4.8 km/h 98 % 0 in /  0.0 mm
11:12 41.2 °F /  5.1 °C 40.6 °F /  4.8 °C 30.4 in /  1027.7 hPa ENE 4 mph /  6.4 km/h 4 mph /  6.4 km/h 98 % 0 in /  0.0 mm
11:17 41.4 °F /  5.2 °C 40.8 °F /  4.9 °C 30.4 in /  1027.7 hPa ENE 6 mph /  9.7 km/h 11 mph /  17.7 km/h 98 % 0 in /  0.0 mm
11:22 41.5 °F /  5.3 °C 41 °F /  5.0 °C 30.3 in /  1027.3 hPa NE 6 mph /  9.7 km/h 11 mph /  17.7 km/h 98 % 0 in /  0.0 mm
11:27 41.5 °F /  5.3 °C 41 °F /  5.0 °C 30.3 in /  1027.3 hPa NE 2 mph /  3.2 km/h 11 mph /  17.7 km/h 98 % 0 in /  0.0 mm
11:32 41.9 °F /  5.5 °C 41.4 °F /  5.2 °C 30.3 in /  1027.3 hPa NNE 6 mph /  9.7 km/h 11 mph /  17.7 km/h 98 % 0 in /  0.0 mm
11:42 42.6 °F /  5.9 °C 42.1 °F /  5.6 °C 30.3 in /  1027.3 hPa NNE 9 mph /  14.5 km/h 13 mph /  20.9 km/h 98 % 0 in /  0.0 mm
11:47 42.6 °F /  5.9 °C 41.9 °F /  5.5 °C 30.3 in /  1027.3 hPa NE 12 mph /  19.3 km/h 14 mph /  22.5 km/h 97 % 0 in /  0.0 mm
11:52 42.6 °F /  5.9 °C 41.9 °F /  5.5 °C 30.3 in /  1027.3 hPa NE 3 mph /  4.8 km/h 14 mph /  22.5 km/h 97 % 0 in /  0.0 mm
11:57 43 °F /  6.1 °C 42.3 °F /  5.7 °C 30.3 in /  1027.0 hPa NE 9 mph /  14.5 km/h 15 mph /  24.1 km/h 97 % 0 in /  0.0 mm
12:02 43.2 °F /  6.2 °C 42.1 °F /  5.6 °C 30.3 in /  1027.0 hPa NE 6 mph /  9.7 km/h 15 mph /  24.1 km/h 96 % 0 in /  0.0 mm
12:07 43.3 °F /  6.3 °C 42.3 °F /  5.7 °C 30.3 in /  1027.0 hPa NE 1 mph /  1.6 km/h 13 mph /  20.9 km/h 96 % 0 in /  0.0 mm
12:12 43.9 °F /  6.6 °C 42.6 °F /  5.9 °C 30.3 in /  1027.0 hPa North 7 mph /  11.3 km/h 13 mph /  20.9 km/h 95 % 0 in /  0.0 mm
12:17 44.2 °F /  6.8 °C 43 °F /  6.1 °C 30.3 in /  1027.0 hPa NNE 8 mph /  12.9 km/h 13 mph /  20.9 km/h 95 % 0 in /  0.0 mm
12:22 44.2 °F /  6.8 °C 42.6 °F /  5.9 °C 30.3 in /  1027.0 hPa NNE 8 mph /  12.9 km/h 13 mph /  20.9 km/h 94 % 0 in /  0.0 mm
12:42 45 °F /  7.2 °C 43 °F /  6.1 °C 30.3 in /  1026.6 hPa NNE 2 mph /  3.2 km/h 13 mph /  20.9 km/h 93 % 0 in /  0.0 mm
12:47 45 °F /  7.2 °C 42.8 °F /  6.0 °C 30.3 in /  1026.6 hPa NE 5 mph /  8.0 km/h 11 mph /  17.7 km/h 92 % 0 in /  0.0 mm
12:52 45 °F /  7.2 °C 42.8 °F /  6.0 °C 30.3 in /  1026.6 hPa NNE 6 mph /  9.7 km/h 11 mph /  17.7 km/h 92 % 0 in /  0.0 mm
13:02 45.3 °F /  7.4 °C 43.2 °F /  6.2 °C 30.3 in /  1026.6 hPa NE 1 mph /  1.6 km/h 7 mph /  11.3 km/h 92 % 0 in /  0.0 mm
13:12 46 °F /  7.8 °C 43.9 °F /  6.6 °C 30.3 in /  1027.0 hPa NE 3 mph /  4.8 km/h 7 mph /  11.3 km/h 92 % 0 in /  0.0 mm
13:17 46.2 °F /  7.9 °C 43.7 °F /  6.5 °C 30.3 in /  1026.6 hPa NE 4 mph /  6.4 km/h 6 mph /  9.7 km/h 91 % 0 in /  0.0 mm
13:27 46.8 °F /  8.2 °C 44.2 °F /  6.8 °C 30.3 in /  1026.6 hPa NNE 3 mph /  4.8 km/h 7 mph /  11.3 km/h 91 % 0 in /  0.0 mm
13:32 46.9 °F /  8.3 °C 44.2 °F /  6.8 °C 30.3 in /  1026.6 hPa East 3 mph /  4.8 km/h 7 mph /  11.3 km/h 90 % 0 in /  0.0 mm
13:42 47.3 °F /  8.5 °C 44.6 °F /  7.0 °C 30.3 in /  1026.6 hPa NE 3 mph /  4.8 km/h 9 mph /  14.5 km/h 90 % 0 in /  0.0 mm
13:52 48 °F /  8.9 °C 45 °F /  7.2 °C 30.3 in /  1026.6 hPa NE 7 mph /  11.3 km/h 9 mph /  14.5 km/h 89 % 0 in /  0.0 mm
13:57 48.4 °F /  9.1 °C 45.3 °F /  7.4 °C 30.3 in /  1026.3 hPa ENE 2 mph /  3.2 km/h 9 mph /  14.5 km/h 89 % 0 in /  0.0 mm
14:02 48.4 °F /  9.1 °C 45.3 °F /  7.4 °C 30.3 in /  1026.3 hPa NE 1 mph /  1.6 km/h 9 mph /  14.5 km/h 89 % 0 in /  0.0 mm
14:12 48.6 °F /  9.2 °C 45.5 °F /  7.5 °C 30.3 in /  1026.3 hPa East 4 mph /  6.4 km/h 10 mph /  16.1 km/h 89 % 0 in /  0.0 mm
14:17 48.6 °F /  9.2 °C 45.1 °F /  7.3 °C 30.3 in /  1026.3 hPa ENE 1 mph /  1.6 km/h 10 mph /  16.1 km/h 88 % 0 in /  0.0 mm
14:22 48.6 °F /  9.2 °C 45.1 °F /  7.3 °C 30.3 in /  1026.3 hPa East 2 mph /  3.2 km/h 10 mph /  16.1 km/h 88 % 0 in /  0.0 mm
14:32 48.7 °F /  9.3 °C 45.3 °F /  7.4 °C 30.3 in /  1026.3 hPa NE 4 mph /  6.4 km/h 6 mph /  9.7 km/h 88 % 0 in /  0.0 mm
14:37 48.7 °F /  9.3 °C 45.3 °F /  7.4 °C 30.3 in /  1026.3 hPa North 3 mph /  4.8 km/h 7 mph /  11.3 km/h 88 % 0 in /  0.0 mm
14:42 48.7 °F /  9.3 °C 45.3 °F /  7.4 °C 30.3 in /  1026.3 hPa ENE 3 mph /  4.8 km/h 8 mph /  12.9 km/h 88 % 0 in /  0.0 mm
14:52 48.9 °F /  9.4 °C 45.5 °F /  7.5 °C 30.3 in /  1026.0 hPa NE 4 mph /  6.4 km/h 6 mph /  9.7 km/h 88 % 0 in /  0.0 mm
14:57 48.9 °F /  9.4 °C 45.5 °F /  7.5 °C 30.3 in /  1026.0 hPa ENE 1 mph /  1.6 km/h 7 mph /  11.3 km/h 88 % 0 in /  0.0 mm
15:02 48.9 °F /  9.4 °C 45.5 °F /  7.5 °C 30.3 in /  1026.0 hPa NE 5 mph /  8.0 km/h 7 mph /  11.3 km/h 88 % 0 in /  0.0 mm
15:07 48.9 °F /  9.4 °C 45.5 °F /  7.5 °C 30.3 in /  1026.0 hPa NE 5 mph /  8.0 km/h 7 mph /  11.3 km/h 88 % 0 in /  0.0 mm
15:12 48.9 °F /  9.4 °C 45.5 °F /  7.5 °C 30.3 in /  1026.0 hPa NE 3 mph /  4.8 km/h 7 mph /  11.3 km/h 88 % 0 in /  0.0 mm
15:17 48.9 °F /  9.4 °C 45.5 °F /  7.5 °C 30.3 in /  1026.0 hPa NE 3 mph /  4.8 km/h 7 mph /  11.3 km/h 88 % 0 in /  0.0 mm
15:22 49.3 °F /  9.6 °C 45.9 °F /  7.7 °C 30.3 in /  1026.0 hPa NNE 3 mph /  4.8 km/h 6 mph /  9.7 km/h 88 % 0 in /  0.0 mm
15:27 49.6 °F /  9.8 °C 46.2 °F /  7.9 °C 30.3 in /  1026.0 hPa North 3 mph /  4.8 km/h 5 mph /  8.0 km/h 88 % 0 in /  0.0 mm
15:32 50 °F /  10.0 °C 46.6 °F /  8.1 °C 30.3 in /  1026.0 hPa NE 4 mph /  6.4 km/h 6 mph /  9.7 km/h 88 % 0 in /  0.0 mm
15:37 50.4 °F /  10.2 °C 46.6 °F /  8.1 °C 30.3 in /  1026.0 hPa NE 2 mph /  3.2 km/h 7 mph /  11.3 km/h 87 % 0 in /  0.0 mm
15:42 50.4 °F /  10.2 °C 46.6 °F /  8.1 °C 30.3 in /  1026.0 hPa ENE 2 mph /  3.2 km/h 7 mph /  11.3 km/h 87 % 0 in /  0.0 mm
15:47 50.2 °F /  10.1 °C 46.2 °F /  7.9 °C 30.3 in /  1026.0 hPa NE 2 mph /  3.2 km/h 7 mph /  11.3 km/h 86 % 0 in /  0.0 mm
15:52 50 °F /  10.0 °C 46.2 °F /  7.9 °C 30.3 in /  1026.0 hPa North 2 mph /  3.2 km/h 6 mph /  9.7 km/h 87 % 0 in /  0.0 mm
15:57 49.8 °F /  9.9 °C 46 °F /  7.8 °C 30.3 in /  1026.0 hPa NE 3 mph /  4.8 km/h 6 mph /  9.7 km/h 87 % 0 in /  0.0 mm
16:02 49.6 °F /  9.8 °C 45.9 °F /  7.7 °C 30.3 in /  1026.0 hPa NE 2 mph /  3.2 km/h 6 mph /  9.7 km/h 87 % 0 in /  0.0 mm
16:12 50 °F /  10.0 °C 46.2 °F /  7.9 °C 30.3 in /  1026.0 hPa NE 2 mph /  3.2 km/h 6 mph /  9.7 km/h 87 % 0 in /  0.0 mm
16:17 50.2 °F /  10.1 °C 46.4 °F /  8.0 °C 30.3 in /  1026.0 hPa NE 4 mph /  6.4 km/h 6 mph /  9.7 km/h 87 % 0 in /  0.0 mm
16:22 50 °F /  10.0 °C 46.2 °F /  7.9 °C 30.3 in /  1026.0 hPa NNE 3 mph /  4.8 km/h 6 mph /  9.7 km/h 87 % 0 in /  0.0 mm
16:32 49.6 °F /  9.8 °C 45.9 °F /  7.7 °C 30.3 in /  1026.0 hPa NNE 2 mph /  3.2 km/h 6 mph /  9.7 km/h 87 % 0 in /  0.0 mm
16:37 49.6 °F /  9.8 °C 45.9 °F /  7.7 °C 30.3 in /  1026.0 hPa NE 4 mph /  6.4 km/h 7 mph /  11.3 km/h 87 % 0 in /  0.0 mm
16:42 49.5 °F /  9.7 °C 46 °F /  7.8 °C 30.3 in /  1026.0 hPa NE 5 mph /  8.0 km/h 7 mph /  11.3 km/h 88 % 0 in /  0.0 mm
16:52 49.3 °F /  9.6 °C 45.9 °F /  7.7 °C 30.3 in /  1026.0 hPa NE 6 mph /  9.7 km/h 9 mph /  14.5 km/h 88 % 0 in /  0.0 mm
16:57 49.3 °F /  9.6 °C 45.9 °F /  7.7 °C 30.3 in /  1026.0 hPa NE 5 mph /  8.0 km/h 9 mph /  14.5 km/h 88 % 0 in /  0.0 mm
17:02 49.1 °F /  9.5 °C 45.7 °F /  7.6 °C 30.3 in /  1026.0 hPa NNW 5 mph /  8.0 km/h 7 mph /  11.3 km/h 88 % 0 in /  0.0 mm
17:07 48.9 °F /  9.4 °C 45.9 °F /  7.7 °C 30.3 in /  1026.0 hPa NNE 3 mph /  4.8 km/h 9 mph /  14.5 km/h 89 % 0 in /  0.0 mm
17:12 48.7 °F /  9.3 °C 45.7 °F /  7.6 °C 30.3 in /  1026.0 hPa NNE 5 mph /  8.0 km/h 9 mph /  14.5 km/h 89 % 0 in /  0.0 mm
17:22 48.4 °F /  9.1 °C 45.3 °F /  7.4 °C 30.3 in /  1026.0 hPa NNW 5 mph /  8.0 km/h 9 mph /  14.5 km/h 89 % 0 in /  0.0 mm
17:27 48 °F /  8.9 °C 45.1 °F /  7.3 °C 30.3 in /  1026.3 hPa NW 2 mph /  3.2 km/h 8 mph /  12.9 km/h 90 % 0 in /  0.0 mm
17:32 48 °F /  8.9 °C 45.1 °F /  7.3 °C 30.3 in /  1026.3 hPa NNE 3 mph /  4.8 km/h 8 mph /  12.9 km/h 90 % 0 in /  0.0 mm
17:37 48 °F /  8.9 °C 45.1 °F /  7.3 °C 30.3 in /  1026.3 hPa NE 5 mph /  8.0 km/h 9 mph /  14.5 km/h 90 % 0 in /  0.0 mm
17:42 47.8 °F /  8.8 °C 45 °F /  7.2 °C 30.3 in /  1026.3 hPa East 4 mph /  6.4 km/h 9 mph /  14.5 km/h 90 % 0 in /  0.0 mm
17:52 47.8 °F /  8.8 °C 45.3 °F /  7.4 °C 30.3 in /  1026.3 hPa NNE 3 mph /  4.8 km/h 9 mph /  14.5 km/h 91 % 0 in /  0.0 mm
17:57 47.7 °F /  8.7 °C 45.1 °F /  7.3 °C 30.3 in /  1026.0 hPa NNE 4 mph /  6.4 km/h 8 mph /  12.9 km/h 91 % 0 in /  0.0 mm
18:12 47.5 °F /  8.6 °C 45.3 °F /  7.4 °C 30.3 in /  1026.0 hPa NW 2 mph /  3.2 km/h 7 mph /  11.3 km/h 92 % 0 in /  0.0 mm
18:17 47.5 °F /  8.6 °C 45.3 °F /  7.4 °C 30.3 in /  1026.0 hPa NW 1 mph /  1.6 km/h 7 mph /  11.3 km/h 92 % 0 in /  0.0 mm
18:22 47.5 °F /  8.6 °C 45.3 °F /  7.4 °C 30.3 in /  1026.0 hPa Calm   8 mph /  12.9 km/h 92 % 0 in /  0.0 mm
18:32 47.1 °F /  8.4 °C 45 °F /  7.2 °C 30.3 in /  1026.0 hPa NNW 2 mph /  3.2 km/h 7 mph /  11.3 km/h 92 % 0 in /  0.0 mm
18:37 47.1 °F /  8.4 °C 45 °F /  7.2 °C 30.3 in /  1026.0 hPa NNE 3 mph /  4.8 km/h 5 mph /  8.0 km/h 92 % 0 in /  0.0 mm
18:42 47.1 °F /  8.4 °C 45 °F /  7.2 °C 30.3 in /  1026.3 hPa ENE 1 mph /  1.6 km/h 5 mph /  8.0 km/h 92 % 0 in /  0.0 mm
18:47 47.1 °F /  8.4 °C 45 °F /  7.2 °C 30.3 in /  1026.3 hPa ENE 1 mph /  1.6 km/h 7 mph /  11.3 km/h 92 % 0 in /  0.0 mm
18:52 47.1 °F /  8.4 °C 45 °F /  7.2 °C 30.3 in /  1026.3 hPa NNW 3 mph /  4.8 km/h 7 mph /  11.3 km/h 92 % 0 in /  0.0 mm
18:57 46.9 °F /  8.3 °C 44.8 °F /  7.1 °C 30.3 in /  1026.3 hPa NNE 2 mph /  3.2 km/h 6 mph /  9.7 km/h 92 % 0 in /  0.0 mm
19:02 46.9 °F /  8.3 °C 44.4 °F /  6.9 °C 30.3 in /  1026.3 hPa ENE 3 mph /  4.8 km/h 9 mph /  14.5 km/h 91 % 0 in /  0.0 mm
19:12 46.9 °F /  8.3 °C 44.4 °F /  6.9 °C 30.3 in /  1026.3 hPa NNE 3 mph /  4.8 km/h 12 mph /  19.3 km/h 91 % 0 in /  0.0 mm
19:17 46.9 °F /  8.3 °C 44.4 °F /  6.9 °C 30.3 in /  1026.3 hPa NNW 4 mph /  6.4 km/h 12 mph /  19.3 km/h 91 % 0 in /  0.0 mm
19:22 46.9 °F /  8.3 °C 44.8 °F /  7.1 °C 30.3 in /  1026.3 hPa North 1 mph /  1.6 km/h 8 mph /  12.9 km/h 92 % 0 in /  0.0 mm
19:32 46.8 °F /  8.2 °C 44.6 °F /  7.0 °C 30.3 in /  1026.3 hPa NNE 3 mph /  4.8 km/h 8 mph /  12.9 km/h 92 % 0 in /  0.0 mm
19:37 46.8 °F /  8.2 °C 44.6 °F /  7.0 °C 30.3 in /  1026.3 hPa North 1 mph /  1.6 km/h 7 mph /  11.3 km/h 92 % 0 in /  0.0 mm
19:42 46.8 °F /  8.2 °C 44.6 °F /  7.0 °C 30.3 in /  1026.6 hPa NE 7 mph /  11.3 km/h 7 mph /  11.3 km/h 92 % 0 in /  0.0 mm
19:47 46.8 °F /  8.2 °C 44.6 °F /  7.0 °C 30.3 in /  1026.6 hPa North 1 mph /  1.6 km/h 7 mph /  11.3 km/h 92 % 0 in /  0.0 mm
19:57 46.6 °F /  8.1 °C 44.4 °F /  6.9 °C 30.3 in /  1026.6 hPa NE 3 mph /  4.8 km/h 7 mph /  11.3 km/h 92 % 0 in /  0.0 mm
20:02 46.6 °F /  8.1 °C 44.4 °F /  6.9 °C 30.3 in /  1026.6 hPa NE 2 mph /  3.2 km/h 5 mph /  8.0 km/h 92 % 0 in /  0.0 mm
20:12 46.4 °F /  8.0 °C 44.2 °F /  6.8 °C 30.3 in /  1026.6 hPa NE 2 mph /  3.2 km/h 5 mph /  8.0 km/h 92 % 0 in /  0.0 mm
20:17 46.4 °F /  8.0 °C 44.2 °F /  6.8 °C 30.3 in /  1026.6 hPa NE 2 mph /  3.2 km/h 6 mph /  9.7 km/h 92 % 0 in /  0.0 mm
20:22 46.2 °F /  7.9 °C 44.1 °F /  6.7 °C 30.3 in /  1026.6 hPa North 4 mph /  6.4 km/h 7 mph /  11.3 km/h 92 % 0 in /  0.0 mm
20:32 46.2 °F /  7.9 °C 44.1 °F /  6.7 °C 30.3 in /  1026.6 hPa NNE 3 mph /  4.8 km/h 7 mph /  11.3 km/h 92 % 0 in /  0.0 mm
20:42 46.2 °F /  7.9 °C 44.2 °F /  6.8 °C 30.3 in /  1026.6 hPa NE 2 mph /  3.2 km/h 6 mph /  9.7 km/h 93 % 0 in /  0.0 mm
20:47 46.2 °F /  7.9 °C 44.2 °F /  6.8 °C 30.3 in /  1026.6 hPa NNE 4 mph /  6.4 km/h 5 mph /  8.0 km/h 93 % 0 in /  0.0 mm
20:52 46.2 °F /  7.9 °C 44.2 °F /  6.8 °C 30.3 in /  1026.6 hPa NNW 3 mph /  4.8 km/h 8 mph /  12.9 km/h 93 % 0 in /  0.0 mm
20:57 46.2 °F /  7.9 °C 44.2 °F /  6.8 °C 30.3 in /  1026.6 hPa North 1 mph /  1.6 km/h 8 mph /  12.9 km/h 93 % 0 in /  0.0 mm
21:02 46 °F /  7.8 °C 44.1 °F /  6.7 °C 30.3 in /  1026.6 hPa North 6 mph /  9.7 km/h 8 mph /  12.9 km/h 93 % 0 in /  0.0 mm
21:12 46 °F /  7.8 °C 44.1 °F /  6.7 °C 30.3 in /  1026.6 hPa NNE 3 mph /  4.8 km/h 11 mph /  17.7 km/h 93 % 0 in /  0.0 mm
21:17 46 °F /  7.8 °C 44.1 °F /  6.7 °C 30.3 in /  1026.6 hPa NNE 1 mph /  1.6 km/h 11 mph /  17.7 km/h 93 % 0 in /  0.0 mm
21:22 46 °F /  7.8 °C 44.1 °F /  6.7 °C 30.3 in /  1026.6 hPa NNE 3 mph /  4.8 km/h 11 mph /  17.7 km/h 93 % 0 in /  0.0 mm
21:27 46 °F /  7.8 °C 44.1 °F /  6.7 °C 30.3 in /  1026.6 hPa NNW 2 mph /  3.2 km/h 7 mph /  11.3 km/h 93 % 0 in /  0.0 mm
21:32 45.9 °F /  7.7 °C 44.2 °F /  6.8 °C 30.3 in /  1026.6 hPa North 1 mph /  1.6 km/h 6 mph /  9.7 km/h 94 % 0 in /  0.0 mm
21:37 45.9 °F /  7.7 °C 44.2 °F /  6.8 °C 30.3 in /  1026.6 hPa Calm   7 mph /  11.3 km/h 94 % 0 in /  0.0 mm
21:42 45.9 °F /  7.7 °C 44.2 °F /  6.8 °C 30.3 in /  1026.6 hPa NNE 2 mph /  3.2 km/h 7 mph /  11.3 km/h 94 % 0 in /  0.0 mm
21:47 45.9 °F /  7.7 °C 44.2 °F /  6.8 °C 30.3 in /  1026.6 hPa North 2 mph /  3.2 km/h 7 mph /  11.3 km/h 94 % 0 in /  0.0 mm
21:52 45.9 °F /  7.7 °C 44.2 °F /  6.8 °C 30.3 in /  1026.6 hPa Calm   5 mph /  8.0 km/h 94 % 0 in /  0.0 mm
21:57 45.7 °F /  7.6 °C 44.1 °F /  6.7 °C 30.3 in /  1026.6 hPa North 1 mph /  1.6 km/h 5 mph /  8.0 km/h 94 % 0 in /  0.0 mm
22:02 45.7 °F /  7.6 °C 44.1 °F /  6.7 °C 30.3 in /  1026.6 hPa Calm   7 mph /  11.3 km/h 94 % 0 in /  0.0 mm
22:12 45.7 °F /  7.6 °C 44.1 °F /  6.7 °C 30.3 in /  1026.6 hPa NNE 7 mph /  11.3 km/h 7 mph /  11.3 km/h 94 % 0 in /  0.0 mm
22:22 45.7 °F /  7.6 °C 44.4 °F /  6.9 °C 30.3 in /  1026.6 hPa Calm   8 mph /  12.9 km/h 95 % 0 in /  0.0 mm
22:27 45.5 °F /  7.5 °C 44.2 °F /  6.8 °C 30.3 in /  1026.6 hPa NNW 1 mph /  1.6 km/h 8 mph /  12.9 km/h 95 % 0 in /  0.0 mm
22:37 45.5 °F /  7.5 °C 44.2 °F /  6.8 °C 30.3 in /  1026.6 hPa NNW 1 mph /  1.6 km/h 7 mph /  11.3 km/h 95 % 0 in /  0.0 mm
22:42 45.5 °F /  7.5 °C 44.2 °F /  6.8 °C 30.3 in /  1027.0 hPa NW 3 mph /  4.8 km/h 7 mph /  11.3 km/h 95 % 0 in /  0.0 mm
22:47 45.3 °F /  7.4 °C 44.1 °F /  6.7 °C 30.3 in /  1027.0 hPa North 4 mph /  6.4 km/h 6 mph /  9.7 km/h 95 % 0 in /  0.0 mm
22:52 45.3 °F /  7.4 °C 44.1 °F /  6.7 °C 30.3 in /  1027.0 hPa NNW 3 mph /  4.8 km/h 8 mph /  12.9 km/h 95 % 0 in /  0.0 mm
22:57 45.3 °F /  7.4 °C 44.1 °F /  6.7 °C 30.3 in /  1026.6 hPa North 2 mph /  3.2 km/h 8 mph /  12.9 km/h 95 % 0 in /  0.0 mm
23:02 45.3 °F /  7.4 °C 44.1 °F /  6.7 °C 30.3 in /  1026.6 hPa NNE 4 mph /  6.4 km/h 8 mph /  12.9 km/h 95 % 0 in /  0.0 mm
23:07 45.1 °F /  7.3 °C 43.9 °F /  6.6 °C 30.3 in /  1026.6 hPa NNE 2 mph /  3.2 km/h 8 mph /  12.9 km/h 95 % 0 in /  0.0 mm
23:12 45.1 °F /  7.3 °C 43.9 °F /  6.6 °C 30.3 in /  1027.0 hPa NE 1 mph /  1.6 km/h 7 mph /  11.3 km/h 95 % 0 in /  0.0 mm
23:22 45 °F /  7.2 °C 43.3 °F /  6.3 °C 30.3 in /  1026.6 hPa NE 2 mph /  3.2 km/h 6 mph /  9.7 km/h 94 % 0 in /  0.0 mm
23:32 45 °F /  7.2 °C 43.3 °F /  6.3 °C 30.3 in /  1026.6 hPa NNE 1 mph /  1.6 km/h 7 mph /  11.3 km/h 94 % 0 in /  0.0 mm
23:37 44.8 °F /  7.1 °C 43.2 °F /  6.2 °C 30.3 in /  1026.6 hPa NNW 2 mph /  3.2 km/h 7 mph /  11.3 km/h 94 % 0 in /  0.0 mm
23:42 44.8 °F /  7.1 °C 43.2 °F /  6.2 °C 30.3 in /  1026.6 hPa NNW 2 mph /  3.2 km/h 7 mph /  11.3 km/h 94 % 0 in /  0.0 mm
23:47 44.8 °F /  7.1 °C 43.2 °F /  6.2 °C 30.3 in /  1026.6 hPa NE 4 mph /  6.4 km/h 7 mph /  11.3 km/h 94 % 0 in /  0.0 mm
23:52 44.8 °F /  7.1 °C 43.2 °F /  6.2 °C 30.3 in /  1026.6 hPa NNE 5 mph /  8.0 km/h 6 mph /  9.7 km/h 94 % 0 in /  0.0 mm
Meteo18
Compliments of Weather Underground - 4 mb

Script developed by  Jim McMurry - jmcmurry@mwt.net Adapted for the template by  Wim van der Kuil - Leuven-Template.eu

You find our weather info also at:

European Weather Network

Weather Underground

Equipment we use:

Weather-station
Davis Vue

Weather-program
Meteohub

Weather-server
Raspberry PI 2 B+

Provider
1 and 1

Davis Vue

Meteohub

Raspberry PI 2 B+

1 and 1